createdAt,value
2018-09-19T00:00:11.290Z,17.99
2018-09-19T00:01:11.006Z,17.99
2018-09-19T00:02:11.793Z,17.91
2018-09-19T00:03:10.906Z,17.90
2018-09-19T00:04:10.884Z,17.90
2018-09-19T00:05:10.968Z,17.87
2018-09-19T00:06:11.122Z,17.79
2018-09-19T00:07:10.854Z,17.71
2018-09-19T00:08:10.801Z,17.73
2018-09-19T00:09:10.871Z,17.65
2018-09-19T00:10:10.910Z,17.59
2018-09-19T00:11:10.797Z,17.45
2018-09-19T00:12:11.115Z,17.41
2018-09-19T00:13:10.772Z,17.46
2018-09-19T00:14:10.968Z,17.45
2018-09-19T00:15:10.753Z,17.41
2018-09-19T00:16:10.681Z,17.46
2018-09-19T00:17:10.722Z,17.43
2018-09-19T00:18:11.198Z,17.46
2018-09-19T00:19:10.936Z,17.38
2018-09-19T00:20:10.798Z,17.25
2018-09-19T00:21:10.612Z,17.31
2018-09-19T00:22:10.685Z,17.24
2018-09-19T00:23:11.067Z,17.24
2018-09-19T00:24:10.956Z,17.22
2018-09-19T00:25:10.621Z,17.17
2018-09-19T00:26:10.627Z,17.12
2018-09-19T00:27:10.657Z,17.04
2018-09-19T00:28:10.519Z,17.12
2018-09-19T00:29:10.700Z,17.07
2018-09-19T00:30:10.969Z,17.10
2018-09-19T00:31:10.800Z,17.19
2018-09-19T00:32:11.143Z,17.13
2018-09-19T00:33:10.543Z,17.07
2018-09-19T00:34:10.515Z,17.10
2018-09-19T00:35:10.474Z,17.13
2018-09-19T00:36:10.860Z,17.12
2018-09-19T00:37:10.391Z,17.10
2018-09-19T00:38:10.446Z,17.14
2018-09-19T00:39:10.421Z,17.13
2018-09-19T00:40:10.363Z,17.12
2018-09-19T00:41:10.497Z,17.12
2018-09-19T00:42:10.679Z,17.14
2018-09-19T00:43:10.320Z,17.13
2018-09-19T00:44:10.296Z,17.09
2018-09-19T00:46:10.337Z,17.10
2018-09-19T00:47:10.311Z,17.09
2018-09-19T00:48:10.437Z,16.97
2018-09-19T00:49:10.648Z,17.06
2018-09-19T00:50:10.382Z,16.98
2018-09-19T00:51:10.249Z,17.10
2018-09-19T00:52:10.197Z,16.98
2018-09-19T00:53:10.411Z,16.99
2018-09-19T00:54:10.264Z,17.04
2018-09-19T00:55:10.373Z,17.06
2018-09-19T00:56:10.479Z,17.07
2018-09-19T00:57:10.267Z,17.04
2018-09-19T00:58:10.261Z,17.06
2018-09-19T00:59:10.364Z,17.07
2018-09-19T01:00:10.132Z,17.10
2018-09-19T01:01:10.208Z,17.02
2018-09-19T01:02:10.113Z,16.99
2018-09-19T01:03:10.509Z,16.95
2018-09-19T01:04:10.094Z,17.16
2018-09-19T01:05:10.254Z,16.95
2018-09-19T01:06:10.150Z,16.95
2018-09-19T01:07:10.032Z,16.92
2018-09-19T01:08:10.117Z,16.98
2018-09-19T01:09:09.994Z,16.99
2018-09-19T01:10:10.314Z,16.94
2018-09-19T01:11:10.082Z,16.97
2018-09-19T01:12:09.975Z,16.88
2018-09-19T01:13:09.973Z,16.73
2018-09-19T01:14:10.028Z,16.74
2018-09-19T01:15:09.937Z,16.73
2018-09-19T01:16:09.902Z,16.77
2018-09-19T01:17:10.236Z,16.79
2018-09-19T01:18:09.891Z,16.70
2018-09-19T01:19:09.843Z,16.62
2018-09-19T01:20:10.012Z,16.62
2018-09-19T01:21:09.885Z,16.52
2018-09-19T01:22:09.826Z,16.47
2018-09-19T01:23:09.812Z,16.47
2018-09-19T01:24:10.086Z,16.47
2018-09-19T01:25:09.772Z,16.43
2018-09-19T01:26:09.760Z,16.52
2018-09-19T01:27:09.702Z,16.62
2018-09-19T01:28:09.730Z,16.62
2018-09-19T01:29:10.014Z,16.54
2018-09-19T01:30:09.667Z,16.64
2018-09-19T01:31:10.038Z,16.64
2018-09-19T01:32:09.687Z,16.58
2018-09-19T01:33:09.722Z,16.57
2018-09-19T01:34:09.766Z,16.59
2018-09-19T01:35:09.634Z,16.54
2018-09-19T01:36:09.625Z,16.47
2018-09-19T01:39:09.876Z,16.47
2018-09-19T01:40:09.621Z,16.51
2018-09-19T01:41:09.547Z,16.44
2018-09-19T01:42:09.864Z,16.46
2018-09-19T01:43:09.472Z,16.37
2018-09-19T01:44:09.557Z,16.36
2018-09-19T01:45:09.789Z,16.34
2018-09-19T01:46:10.244Z,16.42
2018-09-19T01:47:09.580Z,16.44
2018-09-19T01:48:09.560Z,16.44
2018-09-19T01:49:09.442Z,16.44
2018-09-19T01:50:09.518Z,16.46
2018-09-19T01:51:09.752Z,16.46
2018-09-19T01:52:09.447Z,16.42
2018-09-19T01:53:09.377Z,16.47
2018-09-19T01:54:09.308Z,16.37
2018-09-19T01:55:09.375Z,16.34
2018-09-19T01:56:09.478Z,16.21
2018-09-19T01:57:09.920Z,16.14
2018-09-19T01:58:09.492Z,16.09
2018-09-19T01:59:09.678Z,16.00
2018-09-19T02:00:09.436Z,15.96
2018-09-19T02:01:09.359Z,16.08
2018-09-19T02:02:09.258Z,16.05
2018-09-19T02:03:09.687Z,16.06
2018-09-19T02:04:09.322Z,16.05
2018-09-19T02:05:09.205Z,15.95
2018-09-19T02:06:09.277Z,15.99
2018-09-19T02:07:09.179Z,15.99
2018-09-19T02:08:09.225Z,16.03
2018-09-19T02:09:09.446Z,15.98
2018-09-19T02:11:09.267Z,15.91
2018-09-19T02:12:09.044Z,15.91
2018-09-19T02:13:09.037Z,15.95
2018-09-19T02:14:09.067Z,16.00
2018-09-19T02:16:09.478Z,15.99
2018-09-19T02:17:09.141Z,16.00
2018-09-19T02:18:09.046Z,15.98
2018-09-19T02:19:09.257Z,15.95
2018-09-19T02:20:09.087Z,15.90
2018-09-19T02:21:09.115Z,15.84
2018-09-19T02:22:09.076Z,15.93
2018-09-19T02:23:09.361Z,15.93
2018-09-19T02:24:08.921Z,15.95
2018-09-19T02:25:08.872Z,15.87
2018-09-19T02:26:08.905Z,15.88
2018-09-19T02:27:09.110Z,15.76
2018-09-19T02:28:09.066Z,15.78
2018-09-19T02:29:08.906Z,15.85
2018-09-19T02:30:09.176Z,15.83
2018-09-19T02:31:09.080Z,15.83
2018-09-19T02:32:08.820Z,15.83
2018-09-19T02:33:08.806Z,15.73
2018-09-19T02:34:08.809Z,15.77
2018-09-19T02:35:08.907Z,15.77
2018-09-19T02:36:08.769Z,15.78
2018-09-19T02:37:09.033Z,15.81
2018-09-19T02:38:08.741Z,15.77
2018-09-19T02:39:08.650Z,15.76
2018-09-19T02:40:08.694Z,15.84
2018-09-19T02:41:08.845Z,15.85
2018-09-19T02:42:08.668Z,15.76
2018-09-19T02:43:08.640Z,15.80
2018-09-19T02:44:09.028Z,15.81
2018-09-19T02:46:08.640Z,15.83
2018-09-19T02:47:08.582Z,15.80
2018-09-19T02:48:08.678Z,15.80
2018-09-19T02:49:08.535Z,15.83
2018-09-19T02:50:09.340Z,15.80
2018-09-19T02:51:08.830Z,15.83
2018-09-19T02:52:08.470Z,15.85
2018-09-19T02:53:08.546Z,15.78
2018-09-19T02:54:08.459Z,15.78
2018-09-19T02:55:08.599Z,15.69
2018-09-19T02:56:08.553Z,15.66
2018-09-19T02:57:08.512Z,15.63
2018-09-19T02:58:08.744Z,15.68
2018-09-19T02:59:08.561Z,15.68
2018-09-19T03:00:08.561Z,15.60
2018-09-19T03:02:08.713Z,15.70
2018-09-19T03:03:08.348Z,15.62
2018-09-19T03:04:08.661Z,15.68
2018-09-19T03:05:08.321Z,15.70
2018-09-19T03:06:08.583Z,15.60
2018-09-19T03:07:08.446Z,15.63
2018-09-19T03:08:08.403Z,15.51
2018-09-19T03:09:08.427Z,15.56
2018-09-19T03:10:08.711Z,15.58
2018-09-19T03:11:08.492Z,15.47
2018-09-19T03:12:08.616Z,15.45
2018-09-19T03:13:08.174Z,15.50
2018-09-19T03:14:08.216Z,15.43
2018-09-19T03:16:08.765Z,15.36
2018-09-19T03:17:08.344Z,15.44
2018-09-19T03:18:08.158Z,15.41
2018-09-19T03:19:08.196Z,15.40
2018-09-19T03:20:08.247Z,15.32
2018-09-19T03:21:08.128Z,15.38
2018-09-19T03:22:08.458Z,15.41
2018-09-19T03:23:08.979Z,15.45
2018-09-19T03:24:08.071Z,15.44
2018-09-19T03:25:08.428Z,15.45
2018-09-19T03:26:08.094Z,15.40
2018-09-19T03:27:08.039Z,15.40
2018-09-19T03:28:08.460Z,15.45
2018-09-19T03:29:08.090Z,15.29
2018-09-19T03:30:08.404Z,15.26
2018-09-19T03:31:07.959Z,15.26
2018-09-19T03:32:07.925Z,15.26
2018-09-19T03:33:07.959Z,15.25
2018-09-19T03:34:08.248Z,15.27
2018-09-19T03:35:08.166Z,15.26
2018-09-19T03:36:08.259Z,15.23
2018-09-19T03:37:09.307Z,15.23
2018-09-19T03:39:07.833Z,15.22
2018-09-19T03:42:07.844Z,15.14
2018-09-19T03:43:07.796Z,15.20
2018-09-19T03:44:07.835Z,15.26
2018-09-19T03:45:07.747Z,15.25
2018-09-19T03:46:08.505Z,15.23
2018-09-19T03:47:08.105Z,15.20
2018-09-19T03:48:07.730Z,15.23
2018-09-19T03:50:08.288Z,15.27
2018-09-19T03:51:07.632Z,15.36
2018-09-19T03:52:07.792Z,15.43
2018-09-19T03:53:07.729Z,15.41
2018-09-19T03:54:08.145Z,15.51
2018-09-19T03:55:07.651Z,15.47
2018-09-19T03:56:07.580Z,15.48
2018-09-19T03:57:07.618Z,15.50
2018-09-19T03:58:07.716Z,15.47
2018-09-19T03:59:07.616Z,15.51
2018-09-19T04:00:07.965Z,15.43
2018-09-19T04:01:07.922Z,15.50
2018-09-19T04:02:07.527Z,15.43
2018-09-19T04:03:07.625Z,15.47
2018-09-19T04:04:07.530Z,15.41
2018-09-19T04:05:07.557Z,15.41
2018-09-19T04:06:07.443Z,15.43
2018-09-19T04:07:07.502Z,15.38
2018-09-19T04:10:07.692Z,15.33
2018-09-19T04:11:07.379Z,15.33
2018-09-19T04:12:08.021Z,15.33
2018-09-19T04:14:07.340Z,15.29
2018-09-19T04:15:07.266Z,15.36
2018-09-19T04:16:07.376Z,15.27
2018-09-19T04:17:09.167Z,15.33
2018-09-19T04:18:07.491Z,15.30
2018-09-19T04:19:07.252Z,15.23
2018-09-19T04:20:07.193Z,15.26
2018-09-19T04:22:07.267Z,15.25
2018-09-19T04:23:07.351Z,15.23
2018-09-19T04:24:07.501Z,15.22
2018-09-19T04:25:07.497Z,15.19
2018-09-19T04:26:07.311Z,15.15
2018-09-19T04:27:08.091Z,15.14
2018-09-19T04:28:07.107Z,15.17
2018-09-19T04:29:07.950Z,15.08
2018-09-19T04:31:07.901Z,15.05
2018-09-19T04:32:07.334Z,15.08
2018-09-19T04:33:07.824Z,15.11
2018-09-19T04:34:07.187Z,15.08
2018-09-19T04:35:07.445Z,15.08
2018-09-19T04:36:07.015Z,15.03
2018-09-19T04:37:07.968Z,15.05
2018-09-19T04:38:07.081Z,15.22
2018-09-19T04:40:06.904Z,15.22
2018-09-19T04:41:07.098Z,15.08
2018-09-19T04:42:07.388Z,15.07
2018-09-19T04:44:07.129Z,14.96
2018-09-19T04:46:07.321Z,15.01
2018-09-19T04:47:07.197Z,15.04
2018-09-19T04:48:06.791Z,15.07
2018-09-19T04:49:07.138Z,14.95
2018-09-19T04:50:07.094Z,15.04
2018-09-19T04:51:07.308Z,15.01
2018-09-19T04:53:06.720Z,15.03
2018-09-19T04:54:06.833Z,14.93
2018-09-19T04:55:07.067Z,14.89
2018-09-19T04:57:08.996Z,14.96
2018-09-19T04:58:06.621Z,14.93
2018-09-19T04:59:07.419Z,14.97
2018-09-19T05:01:06.590Z,14.87
2018-09-19T05:02:06.561Z,14.92
2018-09-19T05:03:07.245Z,14.96
2018-09-19T05:04:06.511Z,14.90
2018-09-19T05:05:06.915Z,14.97
2018-09-19T05:06:06.494Z,14.93
2018-09-19T05:08:06.468Z,14.95
2018-09-19T05:09:06.400Z,14.89
2018-09-19T05:10:07.149Z,14.92
2018-09-19T05:11:06.823Z,15.04
2018-09-19T05:12:06.350Z,14.90
2018-09-19T05:14:06.382Z,15.05
2018-09-19T05:15:06.384Z,15.05
2018-09-19T05:16:07.343Z,15.05
2018-09-19T05:17:06.424Z,15.07
2018-09-19T05:18:06.713Z,15.10
2018-09-19T05:19:06.749Z,15.12
2018-09-19T05:20:06.241Z,15.25
2018-09-19T05:21:06.904Z,15.22
2018-09-19T05:22:06.825Z,15.23
2018-09-19T05:23:06.238Z,15.25
2018-09-19T05:25:06.418Z,15.26
2018-09-19T05:26:06.538Z,15.27
2018-09-19T05:28:06.908Z,15.23
2018-09-19T05:29:06.508Z,15.23
2018-09-19T05:31:06.231Z,15.32
2018-09-19T05:32:06.744Z,15.33
2018-09-19T05:33:06.387Z,15.32
2018-09-19T05:34:06.611Z,15.43
2018-09-19T05:35:06.322Z,15.36
2018-09-19T05:36:06.072Z,15.35
2018-09-19T05:37:06.019Z,15.40
2018-09-19T05:38:06.271Z,15.40
2018-09-19T05:39:05.969Z,15.38
2018-09-19T05:40:06.367Z,15.41
2018-09-19T05:41:06.211Z,15.36
2018-09-19T05:42:05.937Z,15.33
2018-09-19T05:43:06.008Z,15.41
2018-09-19T05:44:05.926Z,15.41
2018-09-19T05:45:05.917Z,15.41
2018-09-19T05:46:06.639Z,15.43
2018-09-19T05:48:06.007Z,15.43
2018-09-19T05:49:06.129Z,15.38
2018-09-19T05:50:05.917Z,15.43
2018-09-19T05:51:10.986Z,15.58
2018-09-19T05:52:07.115Z,15.50
2018-09-19T05:54:05.728Z,15.51
2018-09-19T05:55:05.733Z,15.50
2018-09-19T05:56:05.667Z,15.56
2018-09-19T05:57:06.014Z,15.66
2018-09-19T06:00:05.805Z,15.77
2018-09-19T06:01:05.651Z,15.78
2018-09-19T06:02:06.089Z,15.81
2018-09-19T06:03:05.935Z,15.83
2018-09-19T06:04:05.622Z,15.81
2018-09-19T06:06:05.636Z,15.81
2018-09-19T06:09:05.529Z,15.96
2018-09-19T06:10:05.495Z,16.00
2018-09-19T06:12:05.602Z,16.16
2018-09-19T06:14:06.067Z,16.18
2018-09-19T06:15:05.804Z,16.17
2018-09-19T06:16:06.738Z,16.32
2018-09-19T06:18:05.986Z,16.42
2018-09-19T06:19:05.920Z,16.46
2018-09-19T06:20:05.435Z,16.47
2018-09-19T06:22:05.464Z,16.55
2018-09-19T06:23:06.344Z,16.57
2018-09-19T06:24:05.330Z,16.62
2018-09-19T06:25:05.655Z,16.62
2018-09-19T06:26:05.776Z,16.70
2018-09-19T06:27:05.366Z,16.73
2018-09-19T06:28:05.652Z,16.73
2018-09-19T06:30:05.280Z,16.79
2018-09-19T06:31:06.691Z,16.92
2018-09-19T06:34:05.858Z,17.04
2018-09-19T06:38:06.676Z,17.31
2018-09-19T06:39:05.803Z,17.39
2018-09-19T06:40:05.590Z,17.45
2018-09-19T06:42:06.098Z,17.45
2018-09-19T06:43:05.179Z,17.47
2018-09-19T06:44:05.428Z,17.63
2018-09-19T06:45:05.008Z,17.65
2018-09-19T06:47:05.370Z,17.81
2018-09-19T06:48:04.969Z,17.90
2018-09-19T06:49:05.121Z,17.97
2018-09-19T06:51:05.344Z,18.05
2018-09-19T06:53:04.895Z,18.17
2018-09-19T06:54:05.304Z,18.24
2018-09-19T06:55:04.821Z,18.21
2018-09-19T06:56:04.867Z,18.31
2018-09-19T06:57:05.236Z,18.33
2018-09-19T06:58:04.972Z,18.41
2018-09-19T06:59:04.874Z,18.42
2018-09-19T07:00:04.821Z,18.48
2018-09-19T07:01:04.765Z,18.49
2018-09-19T07:02:04.740Z,18.54
2018-09-19T07:03:05.053Z,18.70
2018-09-19T07:04:04.746Z,18.71
2018-09-19T07:06:04.700Z,18.70
2018-09-19T07:07:04.705Z,18.81
2018-09-19T07:08:04.777Z,18.88
2018-09-19T07:09:04.976Z,18.82
2018-09-19T07:10:04.669Z,18.85
2018-09-19T07:11:04.638Z,18.96
2018-09-19T07:12:04.799Z,19.00
2018-09-19T07:13:04.983Z,19.08
2018-09-19T07:14:04.692Z,19.13
2018-09-19T07:15:05.361Z,19.27
2018-09-19T07:16:04.684Z,19.27
2018-09-19T07:17:04.814Z,19.45
2018-09-19T07:19:04.546Z,19.60
2018-09-19T07:20:04.528Z,19.67
2018-09-19T07:23:04.843Z,19.78
2018-09-19T07:24:04.498Z,19.86
2018-09-19T07:26:04.523Z,20.04
2018-09-19T07:27:04.422Z,20.05
2018-09-19T07:28:04.368Z,20.09
2018-09-19T07:29:04.709Z,20.15
2018-09-19T07:30:04.390Z,20.18
2018-09-19T07:31:04.632Z,20.30
2018-09-19T07:32:04.310Z,20.34
2018-09-19T07:33:04.652Z,20.33
2018-09-19T07:34:04.369Z,20.37
2018-09-19T07:35:04.612Z,20.42
2018-09-19T07:36:04.399Z,20.46
2018-09-19T07:37:04.327Z,20.46
2018-09-19T07:38:04.344Z,20.50
2018-09-19T07:39:04.674Z,20.68
2018-09-19T07:40:04.331Z,20.74
2018-09-19T07:42:04.505Z,20.82
2018-09-19T07:43:04.207Z,20.90
2018-09-19T07:44:04.170Z,20.90
2018-09-19T07:45:04.217Z,21.01
2018-09-19T07:46:04.190Z,21.14
2018-09-19T07:47:04.203Z,21.29
2018-09-19T07:48:04.469Z,21.25
2018-09-19T07:49:04.168Z,21.43
2018-09-19T07:50:04.140Z,21.56
2018-09-19T07:51:04.123Z,21.66
2018-09-19T07:53:04.104Z,21.53
2018-09-19T07:54:04.405Z,21.69
2018-09-19T07:55:04.083Z,21.73
2018-09-19T07:56:04.080Z,21.73
2018-09-19T07:57:04.160Z,21.78
2018-09-19T07:58:03.989Z,21.81
2018-09-19T07:59:04.033Z,21.80
2018-09-19T08:00:04.342Z,21.82
2018-09-19T08:01:03.981Z,21.84
2018-09-19T08:02:03.998Z,21.88
2018-09-19T08:03:04.095Z,21.94
2018-09-19T08:04:04.029Z,21.97
2018-09-19T08:05:03.978Z,22.03
2018-09-19T08:06:04.258Z,21.96
2018-09-19T08:07:03.982Z,22.01
2018-09-19T08:08:03.980Z,21.88
2018-09-19T08:09:04.086Z,21.91
2018-09-19T08:10:03.859Z,21.91
2018-09-19T08:11:03.915Z,21.85
2018-09-19T08:12:04.258Z,22.00
2018-09-19T08:13:03.894Z,21.98
2018-09-19T08:14:03.895Z,22.03
2018-09-19T08:15:03.948Z,22.03
2018-09-19T08:16:03.784Z,22.15
2018-09-19T08:17:03.963Z,22.18
2018-09-19T08:18:04.128Z,22.25
2018-09-19T08:19:03.811Z,22.25
2018-09-19T08:20:03.748Z,22.38
2018-09-19T08:21:03.791Z,22.36
2018-09-19T08:22:03.719Z,22.31
2018-09-19T08:23:03.933Z,22.51
2018-09-19T08:24:04.047Z,22.58
2018-09-19T08:25:04.152Z,22.62
2018-09-19T08:26:10.025Z,22.43
2018-09-19T08:27:03.839Z,22.46
2018-09-19T08:28:03.678Z,22.62
2018-09-19T08:29:03.736Z,22.52
2018-09-19T08:30:05.031Z,22.58
2018-09-19T08:31:03.692Z,22.62
2018-09-19T08:32:03.672Z,22.71
2018-09-19T08:33:03.876Z,22.92
2018-09-19T08:34:03.639Z,23.06
2018-09-19T08:35:03.627Z,22.88
2018-09-19T08:37:03.570Z,22.78
2018-09-19T08:38:03.589Z,22.78
2018-09-19T08:39:03.626Z,22.85
2018-09-19T08:40:03.526Z,23.01
2018-09-19T08:42:03.851Z,23.17
2018-09-19T08:43:03.566Z,23.21
2018-09-19T08:44:03.541Z,23.22
2018-09-19T08:45:03.541Z,23.37
2018-09-19T08:46:04.065Z,23.31
2018-09-19T08:47:04.139Z,23.41
2018-09-19T08:48:03.790Z,23.48
2018-09-19T08:49:03.508Z,23.54
2018-09-19T08:50:03.467Z,23.48
2018-09-19T08:51:03.552Z,23.69
2018-09-19T08:53:03.447Z,23.56
2018-09-19T08:55:03.452Z,23.61
2018-09-19T08:56:03.415Z,23.56
2018-09-19T08:57:03.760Z,23.61
2018-09-19T08:58:03.395Z,23.63
2018-09-19T08:59:03.386Z,23.82
2018-09-19T09:01:03.771Z,24.07
2018-09-19T09:02:03.450Z,24.21
2018-09-19T09:03:03.508Z,24.41
2018-09-19T09:04:03.297Z,24.53
2018-09-19T09:05:03.342Z,24.66
2018-09-19T09:06:03.331Z,24.63
2018-09-19T09:07:03.614Z,24.70
2018-09-19T09:08:03.295Z,24.62
2018-09-19T09:09:03.288Z,24.84
2018-09-19T09:10:03.278Z,24.91
2018-09-19T09:11:03.263Z,24.94
2018-09-19T09:12:03.219Z,25.11
2018-09-19T09:13:03.564Z,25.28
2018-09-19T09:14:03.200Z,25.34
2018-09-19T09:15:03.300Z,25.26
2018-09-19T09:16:03.173Z,25.16
2018-09-19T09:17:03.224Z,25.12
2018-09-19T09:18:03.257Z,25.11
2018-09-19T09:19:03.485Z,25.04
2018-09-19T09:20:03.478Z,24.85
2018-09-19T09:21:03.194Z,24.85
2018-09-19T09:22:03.107Z,24.91
2018-09-19T09:23:03.114Z,25.15
2018-09-19T09:24:03.193Z,25.16
2018-09-19T09:25:03.446Z,25.11
2018-09-19T09:26:03.133Z,25.08
2018-09-19T09:27:03.429Z,25.08
2018-09-19T09:28:03.187Z,25.26
2018-09-19T09:29:03.115Z,25.51
2018-09-19T09:30:03.051Z,25.63
2018-09-19T09:31:03.416Z,25.68
2018-09-19T09:32:03.078Z,25.96
2018-09-19T09:33:03.090Z,26.19
2018-09-19T09:34:03.070Z,26.04
2018-09-19T09:35:03.161Z,26.36
2018-09-19T09:36:03.052Z,26.43
2018-09-19T09:37:03.393Z,26.34
2018-09-19T09:38:03.045Z,26.05
2018-09-19T09:39:03.027Z,25.88
2018-09-19T09:40:02.973Z,25.81
2018-09-19T09:41:02.970Z,25.88
2018-09-19T09:42:03.023Z,26.19
2018-09-19T09:43:03.304Z,26.19
2018-09-19T09:44:02.993Z,26.01
2018-09-19T09:45:02.979Z,26.00
2018-09-19T09:46:02.963Z,26.11
2018-09-19T09:47:02.918Z,26.30
2018-09-19T09:49:03.230Z,26.64
2018-09-19T09:50:02.981Z,26.65
2018-09-19T09:51:02.964Z,26.45
2018-09-19T09:52:02.957Z,26.30
2018-09-19T09:53:02.922Z,26.71
2018-09-19T09:55:03.233Z,26.80
2018-09-19T09:56:02.898Z,26.60
2018-09-19T09:57:03.013Z,26.41
2018-09-19T09:58:02.882Z,26.45
2018-09-19T10:00:02.820Z,26.39
2018-09-19T10:01:03.995Z,26.34
2018-09-19T10:02:03.552Z,26.53
2018-09-19T10:03:04.197Z,26.80
2018-09-19T10:04:03.435Z,26.95
2018-09-19T10:05:02.837Z,26.97
2018-09-19T10:06:08.622Z,26.80
2018-09-19T10:07:03.133Z,26.76
2018-09-19T10:09:02.817Z,27.23
2018-09-19T10:10:02.783Z,27.37
2018-09-19T10:11:02.814Z,27.37
2018-09-19T10:12:02.873Z,27.37
2018-09-19T10:13:03.116Z,27.13
2018-09-19T10:14:02.731Z,26.88
2018-09-19T10:16:02.722Z,26.82
2018-09-19T10:17:02.823Z,26.73
2018-09-19T10:18:02.788Z,26.64
2018-09-19T10:19:03.062Z,26.76
2018-09-19T10:20:02.766Z,26.57
2018-09-19T10:21:03.066Z,26.76
2018-09-19T10:22:02.785Z,27.10
2018-09-19T10:23:02.715Z,27.47
2018-09-19T10:24:02.790Z,27.34
2018-09-19T10:25:03.033Z,27.35
2018-09-19T10:26:02.678Z,27.38
2018-09-19T10:27:02.825Z,26.98
2018-09-19T10:28:02.673Z,27.08
2018-09-19T10:29:02.719Z,27.10
2018-09-19T10:30:02.722Z,27.12
2018-09-19T10:31:03.005Z,27.01
2018-09-19T10:32:02.700Z,27.00
2018-09-19T10:33:02.801Z,27.08
2018-09-19T10:34:02.701Z,27.30
2018-09-19T10:35:02.748Z,27.52
2018-09-19T10:36:02.830Z,27.69
2018-09-19T10:37:03.318Z,27.70
2018-09-19T10:38:02.845Z,27.75
2018-09-19T10:39:02.701Z,27.83
2018-09-19T10:40:02.664Z,27.83
2018-09-19T10:41:02.608Z,27.76
2018-09-19T10:42:02.728Z,27.72
2018-09-19T10:44:03.341Z,26.88
2018-09-19T10:45:02.872Z,26.93
2018-09-19T10:46:02.649Z,27.26
2018-09-19T10:48:02.666Z,27.85
2018-09-19T10:50:03.398Z,27.82
2018-09-19T10:51:03.228Z,27.25
2018-09-19T10:52:02.923Z,26.97
2018-09-19T10:53:03.899Z,27.49
2018-09-19T10:54:03.246Z,27.72
2018-09-19T10:55:02.947Z,27.78
2018-09-19T10:56:02.742Z,27.53
2018-09-19T10:57:02.700Z,27.70
2018-09-19T10:58:02.635Z,27.60
2018-09-19T10:59:02.562Z,27.70
2018-09-19T11:01:02.838Z,28.17
2018-09-19T11:02:02.649Z,28.62
2018-09-19T11:03:02.638Z,28.28
2018-09-19T11:04:02.824Z,28.17
2018-09-19T11:05:02.593Z,28.38
2018-09-19T11:06:02.868Z,28.52
2018-09-19T11:08:02.873Z,28.62
2018-09-19T11:09:02.851Z,28.19
2018-09-19T11:10:02.654Z,28.00
2018-09-19T11:11:02.496Z,27.80
2018-09-19T11:12:02.547Z,28.35
2018-09-19T11:13:02.486Z,28.59
2018-09-19T11:14:02.857Z,28.50
2018-09-19T11:15:02.647Z,28.13
2018-09-19T11:16:02.667Z,27.63
2018-09-19T11:17:02.559Z,27.88
2018-09-19T11:18:04.802Z,27.57
2018-09-19T11:19:02.543Z,27.44
2018-09-19T11:20:03.488Z,27.42
2018-09-19T11:21:02.639Z,27.32
2018-09-19T11:22:02.473Z,26.93
2018-09-19T11:23:02.534Z,26.90
2018-09-19T11:24:02.587Z,27.52
2018-09-19T11:25:02.618Z,28.22
2018-09-19T11:26:02.437Z,27.91
2018-09-19T11:28:02.507Z,27.30
2018-09-19T11:29:02.483Z,27.41
2018-09-19T11:30:02.497Z,27.90
2018-09-19T11:31:02.437Z,28.22
2018-09-19T11:32:02.499Z,27.97
2018-09-19T11:33:03.170Z,28.22
2018-09-19T11:34:02.539Z,28.27
2018-09-19T11:35:02.588Z,27.88
2018-09-19T11:36:02.482Z,27.15
2018-09-19T11:37:02.449Z,27.42
2018-09-19T11:38:02.464Z,27.95
2018-09-19T11:39:02.885Z,27.88
2018-09-19T11:40:02.453Z,28.17
2018-09-19T11:41:02.385Z,28.50
2018-09-19T11:43:02.426Z,28.94
2018-09-19T11:50:02.543Z,27.73
2018-09-19T11:51:02.345Z,28.06
2018-09-19T11:52:02.348Z,28.10
2018-09-19T11:53:02.361Z,28.47
2018-09-19T11:55:02.730Z,29.13
2018-09-19T11:56:02.337Z,29.09
2018-09-19T11:57:02.653Z,29.13
2018-09-19T11:58:02.450Z,29.07
2018-09-19T12:00:03.986Z,29.65
2018-09-19T12:02:02.880Z,29.81
2018-09-19T12:03:02.324Z,29.80
2018-09-19T12:04:02.286Z,29.89
2018-09-19T12:05:02.360Z,30.03
2018-09-19T12:06:02.348Z,30.15
2018-09-19T12:07:02.331Z,29.86
2018-09-19T12:08:02.931Z,29.70
2018-09-19T12:09:02.323Z,29.76
2018-09-19T12:10:02.347Z,29.86
2018-09-19T12:11:02.323Z,29.62
2018-09-19T12:12:02.344Z,29.68
2018-09-19T12:14:02.683Z,29.77
2018-09-19T12:15:02.274Z,29.73
2018-09-19T12:16:02.360Z,30.21
2018-09-19T12:18:02.278Z,29.96
2018-09-19T12:19:02.536Z,30.10
2018-09-19T12:20:02.670Z,30.32
2018-09-19T12:23:02.429Z,30.40
2018-09-19T12:24:03.208Z,30.32
2018-09-19T12:25:02.347Z,30.14
2018-09-19T12:26:03.093Z,30.15
2018-09-19T12:27:04.422Z,30.10
2018-09-19T12:28:03.259Z,30.14
2018-09-19T12:29:04.156Z,30.45
2018-09-19T12:30:03.436Z,30.68
2018-09-19T12:31:02.484Z,30.92
2018-09-19T12:32:02.839Z,31.15
2018-09-19T12:33:02.306Z,30.75
2018-09-19T12:34:02.758Z,30.24
2018-09-19T12:35:02.221Z,30.26
2018-09-19T12:36:03.769Z,30.35
2018-09-19T12:37:02.269Z,30.68
2018-09-19T12:38:02.951Z,30.62
2018-09-19T12:39:02.327Z,30.40
2018-09-19T12:40:02.396Z,30.48
2018-09-19T12:41:02.316Z,30.58
2018-09-19T12:42:02.353Z,30.60
2018-09-19T12:43:02.255Z,30.30
2018-09-19T12:44:02.690Z,30.53
2018-09-19T12:45:02.280Z,30.93
2018-09-19T12:46:02.488Z,30.95
2018-09-19T12:47:02.178Z,30.92
2018-09-19T12:48:02.251Z,31.08
2018-09-19T12:49:02.276Z,31.27
2018-09-19T12:50:02.646Z,31.39
2018-09-19T12:52:02.489Z,30.80
2018-09-19T12:54:02.371Z,30.82
2018-09-19T12:55:05.696Z,30.59
2018-09-19T12:56:02.544Z,30.32
2018-09-19T12:57:02.375Z,30.26
2018-09-19T12:58:02.173Z,30.53
2018-09-19T12:59:02.234Z,30.52
2018-09-19T13:00:02.644Z,30.26
2018-09-19T13:01:02.353Z,30.43
2018-09-19T13:02:02.533Z,30.77
2018-09-19T13:03:02.203Z,30.97
2018-09-19T13:04:02.202Z,31.05
2018-09-19T13:05:02.192Z,31.23
2018-09-19T13:06:02.200Z,31.45
2018-09-19T13:08:03.265Z,31.30
2018-09-19T13:09:02.177Z,31.22
2018-09-19T13:10:02.220Z,31.44
2018-09-19T13:11:02.340Z,31.08
2018-09-19T13:12:02.214Z,30.26
2018-09-19T13:13:02.181Z,29.70
2018-09-19T13:15:02.956Z,29.58
2018-09-19T13:16:02.213Z,30.39
2018-09-19T13:18:02.587Z,30.74
2018-09-19T13:19:02.198Z,30.58
2018-09-19T13:20:02.376Z,30.73
2018-09-19T13:21:02.503Z,30.90
2018-09-19T13:22:02.111Z,31.08
2018-09-19T13:23:02.137Z,31.49
2018-09-19T13:24:02.115Z,31.70
2018-09-19T13:27:14.227Z,31.33
2018-09-19T13:30:03.306Z,31.61
2018-09-19T13:33:02.439Z,31.76
2018-09-19T13:34:02.392Z,31.99
2018-09-19T13:35:02.599Z,31.94
2018-09-19T13:36:02.515Z,31.67
2018-09-19T13:39:04.118Z,31.32
2018-09-19T13:40:02.504Z,31.26
2018-09-19T13:41:02.743Z,31.44
2018-09-19T13:42:02.528Z,30.85
2018-09-19T13:43:03.876Z,30.93
2018-09-19T13:44:02.134Z,31.23
2018-09-19T13:45:02.849Z,31.26
2018-09-19T13:46:02.303Z,31.26
2018-09-19T13:48:02.056Z,31.46
2018-09-19T13:50:03.262Z,31.51
2018-09-19T13:51:03.463Z,31.46
2018-09-19T13:52:02.513Z,31.26
2018-09-19T13:53:02.254Z,31.14
2018-09-19T13:54:02.148Z,31.45
2018-09-19T13:56:02.098Z,30.80
2018-09-19T13:57:02.618Z,30.89
2018-09-19T13:58:02.065Z,31.24
2018-09-19T13:59:02.039Z,31.61
2018-09-19T14:00:02.183Z,31.54
2018-09-19T14:01:02.183Z,31.27
2018-09-19T14:02:02.227Z,31.12
2018-09-19T14:03:02.458Z,31.07
2018-09-19T14:04:02.174Z,30.75
2018-09-19T14:05:02.272Z,30.62
2018-09-19T14:06:02.130Z,30.68
2018-09-19T14:07:02.044Z,30.77
2018-09-19T14:08:02.285Z,30.65
2018-09-19T14:09:02.597Z,30.26
2018-09-19T14:10:02.256Z,30.43
2018-09-19T14:11:02.020Z,30.80
2018-09-19T14:12:02.068Z,30.74
2018-09-19T14:13:02.042Z,30.77
2018-09-19T14:14:02.393Z,30.78
2018-09-19T14:15:02.407Z,30.60
2018-09-19T14:16:02.129Z,30.39
2018-09-19T14:17:01.988Z,30.53
2018-09-19T14:18:02.050Z,30.64
2018-09-19T14:19:02.060Z,30.62
2018-09-19T14:20:02.179Z,30.13
2018-09-19T14:21:02.465Z,29.93
2018-09-19T14:22:02.114Z,30.26
2018-09-19T14:24:01.962Z,30.14
2018-09-19T14:25:01.972Z,30.59
2018-09-19T14:26:01.922Z,30.64
2018-09-19T14:27:02.575Z,30.88
2018-09-19T14:28:02.432Z,31.11
2018-09-19T14:29:02.000Z,31.11
2018-09-19T14:30:02.018Z,31.26
2018-09-19T14:31:01.984Z,31.29
2018-09-19T14:32:02.180Z,31.15
2018-09-19T14:34:01.926Z,30.62
2018-09-19T14:35:02.300Z,30.26
2018-09-19T14:36:01.970Z,29.86